createdAt,value
2019-05-10T00:03:12.013Z,1.10
2019-05-10T00:08:32.725Z,0.90
2019-05-10T00:13:37.290Z,1.00
2019-05-10T00:18:39.659Z,1.30
2019-05-10T00:23:41.772Z,1.30
2019-05-10T00:28:44.131Z,1.10
2019-05-10T00:33:46.180Z,1.20
2019-05-10T00:38:48.140Z,1.17
2019-05-10T00:43:50.311Z,1.53
2019-05-10T00:48:52.263Z,1.30
2019-05-10T00:53:54.705Z,1.63
2019-05-10T00:58:56.802Z,1.13
2019-05-10T01:03:58.864Z,1.37
2019-05-10T01:09:01.037Z,1.30
2019-05-10T01:14:04.459Z,1.13
2019-05-10T01:19:06.553Z,1.30
2019-05-10T01:24:08.742Z,1.20
2019-05-10T01:29:11.038Z,1.00
2019-05-10T01:34:16.374Z,1.00
2019-05-10T01:39:18.399Z,1.30
2019-05-10T01:44:20.466Z,1.30
2019-05-10T01:49:22.561Z,1.20
2019-05-10T01:54:24.843Z,1.30
2019-05-10T01:59:26.908Z,1.43
2019-05-10T02:04:29.471Z,1.40
2019-05-10T02:09:33.329Z,1.40
2019-05-10T02:14:35.565Z,1.43
2019-05-10T02:19:37.831Z,1.50
2019-05-10T02:24:40.135Z,1.53
2019-05-10T02:29:43.231Z,1.47
2019-05-10T02:34:45.239Z,1.83
2019-05-10T02:39:47.314Z,2.00
2019-05-10T02:44:49.572Z,1.90
2019-05-10T02:49:51.656Z,1.80
2019-05-10T02:54:54.294Z,2.10
2019-05-10T02:59:57.547Z,2.50
2019-05-10T03:04:59.656Z,2.37
2019-05-10T03:10:18.794Z,2.53
2019-05-10T03:15:20.886Z,2.87
2019-05-10T03:20:23.563Z,2.80
2019-05-10T03:25:26.483Z,3.20
2019-05-10T03:30:30.794Z,3.50
2019-05-10T03:35:32.740Z,4.00
2019-05-10T03:40:35.090Z,4.70
2019-05-10T03:45:37.121Z,4.40
2019-05-10T03:50:39.179Z,4.60
2019-05-10T03:55:43.005Z,5.00
2019-05-10T04:00:45.426Z,5.50
2019-05-10T04:05:47.539Z,5.40
2019-05-10T04:10:51.686Z,5.63
2019-05-10T04:15:56.532Z,5.60
2019-05-10T04:20:58.691Z,6.00
2019-05-10T04:26:00.910Z,5.90
2019-05-10T04:31:03.172Z,6.20
2019-05-10T04:36:05.149Z,5.87
2019-05-10T04:41:07.268Z,5.73
2019-05-10T04:46:09.269Z,6.27
2019-05-10T04:51:11.409Z,6.10
2019-05-10T04:56:14.573Z,6.43
2019-05-10T05:01:16.817Z,6.53
2019-05-10T05:06:18.998Z,6.17
2019-05-10T05:11:21.086Z,6.77
2019-05-10T05:16:23.048Z,6.60
2019-05-10T05:21:25.022Z,6.13
2019-05-10T05:26:26.998Z,5.90
2019-05-10T05:31:29.129Z,5.57
2019-05-10T05:36:31.331Z,5.67
2019-05-10T05:41:47.759Z,6.50
2019-05-10T05:47:11.951Z,5.07
2019-05-10T05:52:14.936Z,4.53
2019-05-10T05:57:16.994Z,4.63
2019-05-10T06:02:19.249Z,5.50
2019-05-10T06:07:21.324Z,5.17
2019-05-10T06:12:23.526Z,4.57
2019-05-10T06:17:29.352Z,4.70
2019-05-10T06:22:29.637Z,4.23
2019-05-10T06:27:35.430Z,4.77
2019-05-10T06:32:36.975Z,5.77
2019-05-10T06:37:39.054Z,5.70
2019-05-10T06:42:42.780Z,4.87
2019-05-10T06:47:47.933Z,6.10
2019-05-10T06:52:52.428Z,5.37
2019-05-10T06:58:00.462Z,6.00
2019-05-10T07:03:01.402Z,6.27
2019-05-10T07:08:14.022Z,4.43
2019-05-10T07:13:07.832Z,5.90
2019-05-10T07:18:09.950Z,5.57
2019-05-10T07:23:11.937Z,4.87
2019-05-10T07:28:17.686Z,5.50
2019-05-10T07:33:19.161Z,3.73
2019-05-10T07:38:23.745Z,2.60
2019-05-10T07:43:28.733Z,3.73
2019-05-10T07:48:29.384Z,2.30
2019-05-10T07:53:31.500Z,1.90
2019-05-10T07:58:38.222Z,1.80
2019-05-10T08:03:44.252Z,1.70
2019-05-10T08:08:43.846Z,1.67
2019-05-10T08:13:48.460Z,1.90
2019-05-10T08:18:50.144Z,2.00
2019-05-10T08:23:54.074Z,1.80
2019-05-10T08:28:56.479Z,1.03
2019-05-10T08:33:59.199Z,1.63
2019-05-10T08:39:09.609Z,1.50
2019-05-10T08:44:16.711Z,1.57
2019-05-10T08:49:12.963Z,1.20
2019-05-10T08:54:14.984Z,0.70
2019-05-10T08:59:23.596Z,1.20
2019-05-10T09:04:22.241Z,1.57
2019-05-10T09:09:24.488Z,1.10
2019-05-10T09:14:26.463Z,1.20
2019-05-10T09:19:37.221Z,1.00
2019-05-10T09:24:34.943Z,1.30
2019-05-10T09:29:37.495Z,1.33
2019-05-10T09:34:42.437Z,1.47
2019-05-10T09:39:44.161Z,0.80
2019-05-10T09:44:47.864Z,0.97
2019-05-10T09:49:58.503Z,1.30
2019-05-10T09:54:57.005Z,1.20
2019-05-10T09:59:59.267Z,1.27
2019-05-10T10:05:01.324Z,1.00
2019-05-10T10:10:07.256Z,1.10
2019-05-10T10:15:11.897Z,1.20
2019-05-10T10:20:13.288Z,1.30
2019-05-10T10:25:17.571Z,1.17
2019-05-10T10:30:21.550Z,1.30
2019-05-10T10:35:27.672Z,1.70
2019-05-10T10:40:28.138Z,1.20
2019-05-10T10:45:30.320Z,1.40
2019-05-10T10:50:32.524Z,1.00
2019-05-10T10:55:39.401Z,1.10
2019-05-10T11:00:39.850Z,1.40
2019-05-10T11:05:42.134Z,1.20
2019-05-10T11:10:46.176Z,1.50
2019-05-10T11:15:48.322Z,1.30
2019-05-10T11:20:53.921Z,1.10
2019-05-10T11:25:56.462Z,1.00
2019-05-10T11:31:00.836Z,1.00
2019-05-10T11:36:07.033Z,1.10
2019-05-10T11:41:11.645Z,0.80
2019-05-10T11:46:11.777Z,0.90
2019-05-10T11:51:17.277Z,0.90
2019-05-10T11:56:25.077Z,1.20
2019-05-10T12:01:22.735Z,1.00
2019-05-10T12:06:24.957Z,1.10
2019-05-10T12:11:33.221Z,1.20
2019-05-10T12:16:33.274Z,0.80
2019-05-10T12:21:35.227Z,0.43
2019-05-10T12:31:41.601Z,0.60
2019-05-10T12:36:45.864Z,0.90
2019-05-10T12:41:49.966Z,1.03
2019-05-10T12:46:54.309Z,1.20
2019-05-10T14:38:23.821Z,1.13
2019-05-10T14:43:25.956Z,1.90
2019-05-10T14:48:30.577Z,1.83
2019-05-10T14:53:33.929Z,1.80
2019-05-10T14:58:35.935Z,0.90
2019-05-10T15:03:45.288Z,1.20
2019-05-10T15:08:42.016Z,1.60
2019-05-10T15:13:44.262Z,1.20
2019-05-10T15:18:46.468Z,1.00
2019-05-10T15:23:48.757Z,0.73
2019-05-10T16:35:23.103Z,1.23
2019-05-10T16:40:25.474Z,1.53
2019-05-10T16:50:55.334Z,1.00
2019-05-10T16:55:57.459Z,1.90
2019-05-10T17:00:59.745Z,3.00
2019-05-10T17:06:04.214Z,3.33
2019-05-10T17:11:10.121Z,3.77
2019-05-10T17:16:11.609Z,1.93
2019-05-10T17:21:14.205Z,2.40
2019-05-10T17:26:16.291Z,2.57
2019-05-10T17:31:18.452Z,3.20
2019-05-10T17:36:21.553Z,3.03
2019-05-10T17:41:42.246Z,3.60
2019-05-10T17:47:03.003Z,4.10
2019-05-10T17:52:23.653Z,3.60
2019-05-10T17:57:48.544Z,3.50
2019-05-10T18:03:06.859Z,3.20
2019-05-10T18:08:27.399Z,3.33
2019-05-10T18:13:48.178Z,3.40
2019-05-10T18:19:08.616Z,3.43
2019-05-10T18:24:36.366Z,3.60
2019-05-10T18:34:18.454Z,2.80
2019-05-10T18:39:20.389Z,2.87
2019-05-10T18:49:21.913Z,5.50
2019-05-10T18:54:24.014Z,3.00
2019-05-10T18:59:26.206Z,3.17
2019-05-10T19:04:29.821Z,2.63
2019-05-10T19:09:32.007Z,3.20
2019-05-10T19:14:33.993Z,3.30
2019-05-10T19:19:41.505Z,3.60
2019-05-10T19:24:40.005Z,3.40
2019-05-10T19:29:45.568Z,3.63
2019-05-10T19:40:07.867Z,4.20
2019-05-10T19:45:12.948Z,4.20
2019-05-10T19:50:14.300Z,4.20
2019-05-10T19:55:19.278Z,4.20
2019-05-10T20:00:21.107Z,4.27
2019-05-10T20:05:24.463Z,4.07
2019-05-10T20:10:27.264Z,4.57
2019-05-10T20:15:29.594Z,4.90
2019-05-10T20:20:31.800Z,4.53
2019-05-10T20:31:34.291Z,5.77
2019-05-10T20:36:38.479Z,5.33
2019-05-10T20:41:40.873Z,5.37
2019-05-10T20:46:42.969Z,5.27
2019-05-10T20:51:45.187Z,5.47
2019-05-10T20:56:47.330Z,5.07
2019-05-10T21:01:49.408Z,5.53
2019-05-10T21:06:51.468Z,5.13
2019-05-10T21:11:53.619Z,4.80
2019-05-10T21:16:55.824Z,5.63
2019-05-10T21:21:57.881Z,5.77
2019-05-10T21:26:59.946Z,5.40
2019-05-10T21:37:14.626Z,6.60
2019-05-10T21:42:16.677Z,6.33
2019-05-10T21:47:18.699Z,6.53
2019-05-10T21:52:20.808Z,7.37
2019-05-10T21:57:22.790Z,8.07
2019-05-10T22:02:25.028Z,7.90
2019-05-10T22:07:27.194Z,7.80
2019-05-10T22:12:29.340Z,7.90
2019-05-10T22:17:31.441Z,7.47
2019-05-10T22:22:33.577Z,6.90
2019-05-10T22:27:36.572Z,7.17
2019-05-10T22:32:38.796Z,7.30
2019-05-10T22:37:40.960Z,7.87
2019-05-10T22:42:43.014Z,8.53
2019-05-10T22:47:45.188Z,8.77
2019-05-10T22:52:47.276Z,8.43
2019-05-10T22:57:49.426Z,8.33
2019-05-10T23:02:51.508Z,8.60
2019-05-10T23:07:53.756Z,9.07
2019-05-10T23:12:55.992Z,9.03
2019-05-10T23:17:58.180Z,9.07
2019-05-10T23:23:00.203Z,8.50
2019-05-10T23:28:02.223Z,8.77
2019-05-10T23:38:38.008Z,9.17
2019-05-10T23:43:40.081Z,9.40
2019-05-10T23:48:42.225Z,8.97
2019-05-10T23:53:44.364Z,9.33
2019-05-10T23:58:46.377Z,9.27
